createdAt,value
2019-05-14T00:01:05.282Z,13.30
2019-05-14T00:03:35.612Z,12.03
2019-05-14T00:06:05.902Z,11.97
2019-05-14T00:08:36.136Z,14.25
2019-05-14T00:11:06.853Z,15.05
2019-05-14T00:13:37.069Z,13.38
2019-05-14T00:16:07.377Z,15.75
2019-05-14T00:18:37.590Z,12.58
2019-05-14T00:21:08.326Z,10.90
2019-05-14T00:23:38.616Z,13.15
2019-05-14T00:26:09.016Z,14.28
2019-05-14T00:28:39.321Z,12.73
2019-05-14T00:31:11.952Z,13.62
2019-05-14T00:33:43.471Z,15.13
2019-05-14T00:36:13.789Z,13.68
2019-05-14T00:38:44.006Z,13.22
2019-05-14T00:41:14.346Z,12.80
2019-05-14T00:43:44.719Z,13.95
2019-05-14T00:46:15.005Z,13.60
2019-05-14T00:48:46.815Z,13.38
2019-05-14T00:51:17.484Z,16.57
2019-05-14T00:53:47.839Z,14.55
2019-05-14T00:56:18.073Z,14.75
2019-05-14T00:58:48.712Z,18.55
2019-05-14T01:01:21.421Z,14.15
2019-05-14T01:03:52.151Z,18.30
2019-05-14T01:06:23.022Z,17.73
2019-05-14T01:08:53.680Z,17.05
2019-05-14T01:11:24.353Z,17.90
2019-05-14T01:13:54.604Z,14.70
2019-05-14T01:16:24.956Z,18.70
2019-05-14T01:18:55.527Z,13.38
2019-05-14T01:21:25.812Z,17.40
2019-05-14T01:23:56.051Z,15.35
2019-05-14T01:26:26.489Z,15.48
2019-05-14T01:28:57.004Z,15.45
2019-05-14T01:31:27.234Z,16.07
2019-05-14T01:33:57.487Z,16.45
2019-05-14T01:36:27.710Z,18.32
2019-05-14T01:38:57.955Z,14.90
2019-05-14T01:41:28.586Z,17.75
2019-05-14T01:44:01.607Z,19.32
2019-05-14T01:46:31.839Z,19.55
2019-05-14T01:49:02.645Z,19.27
2019-05-14T01:51:32.881Z,17.85
2019-05-14T01:54:03.114Z,17.77
2019-05-14T01:56:33.453Z,16.10
2019-05-14T01:59:04.247Z,16.62
2019-05-14T02:01:34.914Z,18.07
2019-05-14T02:04:05.278Z,14.40
2019-05-14T02:06:35.957Z,14.18
2019-05-14T02:09:07.957Z,19.37
2019-05-14T02:11:38.590Z,14.73
2019-05-14T02:14:08.902Z,15.60
2019-05-14T02:16:42.027Z,16.50
2019-05-14T02:19:11.955Z,13.68
2019-05-14T02:21:42.665Z,13.53
2019-05-14T02:24:13.009Z,16.27
2019-05-14T02:26:44.750Z,15.08
2019-05-14T02:29:15.098Z,17.35
2019-05-14T02:31:45.680Z,16.02
2019-05-14T02:34:19.593Z,12.33
2019-05-14T02:36:49.626Z,11.95
2019-05-14T02:39:20.612Z,12.30
2019-05-14T02:41:50.833Z,14.03
2019-05-14T02:44:21.051Z,14.80
2019-05-14T02:46:51.275Z,14.05
2019-05-14T02:49:21.557Z,14.38
2019-05-14T02:51:51.870Z,14.70
2019-05-14T02:54:22.103Z,13.50
2019-05-14T02:56:52.327Z,14.50
2019-05-14T02:59:22.550Z,14.33
2019-05-14T03:01:52.799Z,16.25
2019-05-14T03:04:23.226Z,12.90
2019-05-14T03:06:53.439Z,11.73
2019-05-14T03:09:23.803Z,15.38
2019-05-14T03:11:54.037Z,13.80
2019-05-14T03:14:24.347Z,12.00
2019-05-14T03:16:54.637Z,14.90
2019-05-14T03:19:25.125Z,14.75
2019-05-14T03:21:55.941Z,14.23
2019-05-14T03:24:28.787Z,10.95
2019-05-14T03:26:58.839Z,12.40
2019-05-14T03:29:31.055Z,12.10
2019-05-14T03:32:03.685Z,12.33
2019-05-14T03:34:42.048Z,12.13
2019-05-14T03:37:12.989Z,13.70
2019-05-14T03:39:40.361Z,15.28
2019-05-14T03:42:11.104Z,13.45
2019-05-14T03:44:41.502Z,14.20
2019-05-14T03:47:11.728Z,10.80
2019-05-14T03:49:42.042Z,10.58
2019-05-14T03:52:14.350Z,10.65
2019-05-14T03:54:44.651Z,11.63
2019-05-14T03:57:15.488Z,10.93
2019-05-14T03:59:45.914Z,13.22
2019-05-14T04:02:19.889Z,14.00
2019-05-14T04:04:50.338Z,11.22
2019-05-14T04:07:22.991Z,13.32
2019-05-14T04:09:55.273Z,11.75
2019-05-14T04:12:29.418Z,14.80
2019-05-14T04:17:41.829Z,12.20
2019-05-14T04:20:10.769Z,12.15
2019-05-14T04:22:42.218Z,12.88
2019-05-14T04:25:13.280Z,10.53
2019-05-14T04:27:49.116Z,16.23
2019-05-14T04:30:23.559Z,13.68
2019-05-14T04:32:53.229Z,10.75
2019-05-14T04:35:23.730Z,12.50
2019-05-14T04:37:54.186Z,11.25
2019-05-14T04:40:24.636Z,12.73
2019-05-14T04:42:59.060Z,10.98
2019-05-14T04:45:29.635Z,11.50
2019-05-14T04:48:00.552Z,12.03
2019-05-14T04:50:32.416Z,12.68
2019-05-14T04:53:02.724Z,14.80
2019-05-14T04:55:32.927Z,11.88
2019-05-14T04:58:04.493Z,12.07
2019-05-14T05:00:35.426Z,13.03
2019-05-14T05:03:08.534Z,15.03
2019-05-14T05:05:39.309Z,12.18
2019-05-14T05:08:13.963Z,15.68
2019-05-14T05:10:42.403Z,12.23
2019-05-14T05:13:12.973Z,11.90
2019-05-14T05:15:43.855Z,11.45
2019-05-14T05:18:18.420Z,11.33
2019-05-14T05:20:50.508Z,10.93
2019-05-14T05:23:20.007Z,11.73
2019-05-14T05:25:50.644Z,13.40
2019-05-14T05:28:21.323Z,11.57
2019-05-14T05:30:51.976Z,10.48
2019-05-14T05:33:22.814Z,8.68
2019-05-14T05:35:53.515Z,8.13
2019-05-14T05:38:23.817Z,9.35
2019-05-14T05:40:56.650Z,10.45
2019-05-14T05:43:28.397Z,12.18
2019-05-14T05:45:59.204Z,10.28
2019-05-14T05:48:30.242Z,10.00
2019-05-14T05:51:00.985Z,9.30
2019-05-14T05:53:33.248Z,9.73
2019-05-14T05:56:03.910Z,11.28
2019-05-14T05:58:34.194Z,8.98
2019-05-14T06:01:04.848Z,7.20
2019-05-14T06:03:35.481Z,12.80
2019-05-14T06:06:05.868Z,8.75
2019-05-14T06:08:38.782Z,12.15
2019-05-14T06:11:09.888Z,9.58
2019-05-14T06:13:40.712Z,10.15
2019-05-14T06:16:11.013Z,10.30
2019-05-14T06:18:43.290Z,8.70
2019-05-14T06:21:13.929Z,10.10
2019-05-14T06:23:44.727Z,9.18
2019-05-14T06:26:15.386Z,11.48
2019-05-14T06:28:48.422Z,7.08
2019-05-14T06:31:19.179Z,8.30
2019-05-14T06:33:49.784Z,9.33
2019-05-14T06:36:19.993Z,8.35
2019-05-14T06:38:50.242Z,9.58
2019-05-14T06:41:20.542Z,8.33
2019-05-14T06:43:51.166Z,7.00
2019-05-14T06:46:22.615Z,6.65
2019-05-14T06:48:52.992Z,9.03
2019-05-14T06:51:23.232Z,5.70
2019-05-14T06:53:53.479Z,6.37
2019-05-14T06:56:24.125Z,5.25
2019-05-14T06:58:54.520Z,5.50
2019-05-14T07:01:25.183Z,6.65
2019-05-14T07:03:55.493Z,6.65
2019-05-14T07:06:28.812Z,8.35
2019-05-14T07:08:58.932Z,5.47
2019-05-14T07:11:29.823Z,5.75
2019-05-14T07:14:00.114Z,4.97
2019-05-14T07:16:30.772Z,6.35
2019-05-14T07:19:01.450Z,4.90
2019-05-14T07:21:32.135Z,5.65
2019-05-14T07:24:02.901Z,4.25
2019-05-14T07:26:33.482Z,5.25
2019-05-14T07:29:03.969Z,6.22
2019-05-14T07:31:38.454Z,7.75
2019-05-14T07:34:09.328Z,6.40
2019-05-14T07:36:39.569Z,5.05
2019-05-14T07:39:13.180Z,4.65
2019-05-14T07:41:42.322Z,6.78
2019-05-14T07:44:12.553Z,4.85
2019-05-14T07:46:43.789Z,5.72
2019-05-14T07:49:14.154Z,7.45
2019-05-14T07:51:44.830Z,7.15
2019-05-14T07:54:15.450Z,6.00
2019-05-14T07:56:45.801Z,6.53
2019-05-14T07:59:18.066Z,5.40
2019-05-14T08:01:49.193Z,4.50
2019-05-14T08:04:20.092Z,5.62
2019-05-14T08:06:50.627Z,5.92
2019-05-14T08:09:21.223Z,5.17
2019-05-14T08:11:52.055Z,4.53
2019-05-14T08:14:22.718Z,5.20
2019-05-14T08:16:53.921Z,4.75
2019-05-14T08:19:27.886Z,3.92
2019-05-14T08:21:58.690Z,3.25
2019-05-14T08:24:30.668Z,3.25
2019-05-14T08:27:01.322Z,4.40
2019-05-14T08:29:37.530Z,4.12
2019-05-14T08:32:08.799Z,3.22
2019-05-14T08:34:39.406Z,3.02
2019-05-14T08:37:10.024Z,3.85
2019-05-14T08:39:40.453Z,3.95
2019-05-14T08:42:10.757Z,3.20
2019-05-14T08:44:41.065Z,3.47
2019-05-14T08:47:11.735Z,3.27
2019-05-14T08:49:46.660Z,3.50
2019-05-14T08:52:16.154Z,3.55
2019-05-14T08:54:49.215Z,4.10
2019-05-14T08:57:19.371Z,3.80
2019-05-14T08:59:52.816Z,2.90
2019-05-14T09:02:24.981Z,7.70
2019-05-14T09:04:55.441Z,3.37
2019-05-14T09:07:26.073Z,5.25
2019-05-14T09:09:59.896Z,4.40
2019-05-14T09:12:28.819Z,4.83
2019-05-14T09:14:59.505Z,6.67
2019-05-14T09:17:30.155Z,3.15
2019-05-14T09:20:06.413Z,3.05
2019-05-14T09:22:32.816Z,4.17
2019-05-14T09:25:04.278Z,4.30
2019-05-14T09:27:35.069Z,3.92
2019-05-14T09:30:09.664Z,4.05
2019-05-14T09:32:41.004Z,6.15
2019-05-14T09:35:11.323Z,5.05
2019-05-14T09:37:43.271Z,4.10
2019-05-14T09:40:13.882Z,4.37
2019-05-14T09:42:44.177Z,4.50
2019-05-14T09:45:15.488Z,3.40
2019-05-14T09:47:49.999Z,5.47
2019-05-14T09:50:23.157Z,7.95
2019-05-14T09:52:51.163Z,5.55
2019-05-14T09:55:21.823Z,5.28
2019-05-14T09:57:52.490Z,5.50
2019-05-14T10:00:23.701Z,4.97
2019-05-14T10:02:54.382Z,4.00
2019-05-14T10:05:25.200Z,4.80
2019-05-14T10:07:55.949Z,4.28
2019-05-14T10:10:30.034Z,6.17
2019-05-14T10:13:01.443Z,4.65
2019-05-14T10:15:30.610Z,5.65
2019-05-14T10:18:00.984Z,5.28
2019-05-14T10:20:40.156Z,5.05
2019-05-14T10:23:04.696Z,4.17
2019-05-14T10:25:35.502Z,5.12
2019-05-14T10:28:08.523Z,5.58
2019-05-14T10:30:39.013Z,5.15
2019-05-14T10:33:14.743Z,5.55
2019-05-14T10:35:41.671Z,6.28
2019-05-14T10:38:12.212Z,2.77
2019-05-14T10:40:42.595Z,6.90
2019-05-14T10:43:12.882Z,3.27
2019-05-14T10:45:49.409Z,4.10
2019-05-14T10:48:19.658Z,4.30
2019-05-14T10:50:59.038Z,3.83
2019-05-14T10:53:22.322Z,5.05
2019-05-14T10:55:52.688Z,3.92
2019-05-14T10:58:22.937Z,6.10
2019-05-14T11:00:53.171Z,28.55
2019-05-14T11:03:23.471Z,5.00
2019-05-14T11:05:53.774Z,3.75
2019-05-14T11:08:24.440Z,3.45
2019-05-14T11:10:55.048Z,4.75
2019-05-14T11:13:28.874Z,5.17
2019-05-14T11:15:59.515Z,4.22
2019-05-14T11:18:30.552Z,3.90
2019-05-14T11:21:18.674Z,5.08
2019-05-14T11:23:33.109Z,5.30
2019-05-14T11:26:03.827Z,4.58
2019-05-14T11:28:35.995Z,4.12
2019-05-14T11:31:09.027Z,5.65
2019-05-14T11:33:38.902Z,7.12
2019-05-14T11:36:09.727Z,3.77
2019-05-14T11:38:40.561Z,4.33
2019-05-14T11:41:11.295Z,4.12
2019-05-14T11:43:42.911Z,6.95
2019-05-14T11:46:15.142Z,3.85
2019-05-14T11:48:48.724Z,9.40
2019-05-14T11:51:28.385Z,4.15
2019-05-14T11:53:51.051Z,3.35
2019-05-14T11:56:21.619Z,3.77
2019-05-14T11:58:52.057Z,2.80
2019-05-14T12:01:22.485Z,4.50
2019-05-14T12:03:54.312Z,5.55
2019-05-14T12:06:27.333Z,4.83
2019-05-14T12:08:58.279Z,4.00
2019-05-14T12:11:29.237Z,4.00
2019-05-14T12:14:00.053Z,4.40
2019-05-14T12:16:30.465Z,3.90
2019-05-14T12:19:00.701Z,3.67
2019-05-14T12:21:31.462Z,4.47
2019-05-14T12:24:05.023Z,4.00
2019-05-14T12:26:34.497Z,3.65
2019-05-14T12:29:05.279Z,2.87
2019-05-14T12:31:38.429Z,2.87
2019-05-14T12:34:11.404Z,4.10
2019-05-14T12:36:42.946Z,2.95
2019-05-14T12:39:13.611Z,3.22
2019-05-14T12:41:43.954Z,3.10
2019-05-14T12:44:14.543Z,3.17
2019-05-14T12:46:44.834Z,3.42
2019-05-14T12:49:15.452Z,6.17
2019-05-14T12:51:46.114Z,3.20
2019-05-14T12:54:19.704Z,4.17
2019-05-14T12:56:50.596Z,4.70
2019-05-14T12:59:21.309Z,4.37
2019-05-14T13:01:51.712Z,4.08
2019-05-14T13:04:22.078Z,8.18
2019-05-14T13:06:52.305Z,4.33
2019-05-14T13:09:22.693Z,4.92
2019-05-14T13:11:53.056Z,5.80
2019-05-14T13:14:23.346Z,4.78
2019-05-14T13:16:54.637Z,4.75
2019-05-14T13:19:25.424Z,6.35
2019-05-14T13:22:12.237Z,5.28
2019-05-14T13:24:28.800Z,10.80
2019-05-14T13:26:59.709Z,4.97
2019-05-14T13:29:32.835Z,5.45
2019-05-14T13:32:03.083Z,5.22
2019-05-14T13:34:33.880Z,4.62
2019-05-14T13:37:05.779Z,5.55
2019-05-14T13:39:39.609Z,7.78
2019-05-14T13:42:11.691Z,6.10
2019-05-14T13:44:40.159Z,5.22
2019-05-14T13:47:14.583Z,5.70
2019-05-14T13:49:44.821Z,6.72
2019-05-14T13:52:15.446Z,6.40
2019-05-14T13:54:45.771Z,6.92
2019-05-14T13:57:19.414Z,5.90
2019-05-14T13:59:50.718Z,7.45
2019-05-14T14:02:20.934Z,10.80
2019-05-14T14:04:51.861Z,7.22
2019-05-14T14:07:22.070Z,7.65
2019-05-14T14:09:55.393Z,6.10
2019-05-14T14:12:31.791Z,8.33
2019-05-14T14:14:59.152Z,7.12
2019-05-14T14:17:29.407Z,8.63
2019-05-14T14:19:59.716Z,7.08
2019-05-14T14:22:30.620Z,6.40
2019-05-14T14:25:00.923Z,6.83
2019-05-14T14:27:31.930Z,7.28
2019-05-14T14:30:02.934Z,8.10
2019-05-14T14:32:33.579Z,7.40
2019-05-14T14:35:04.427Z,8.15
2019-05-14T14:37:34.883Z,8.98
2019-05-14T14:40:10.225Z,7.55
2019-05-14T14:42:40.904Z,5.95
2019-05-14T14:45:12.174Z,8.80
2019-05-14T14:47:42.493Z,8.48
2019-05-14T14:50:13.761Z,8.85
2019-05-14T14:52:44.475Z,8.60
2019-05-14T14:55:15.176Z,10.68
2019-05-14T14:57:54.145Z,12.18
2019-05-14T15:00:21.381Z,9.40
2019-05-14T15:02:52.064Z,10.78
2019-05-14T15:05:22.803Z,10.13
2019-05-14T15:07:53.496Z,10.63
2019-05-14T15:10:23.990Z,11.05
2019-05-14T15:12:54.619Z,11.53
2019-05-14T15:15:25.431Z,10.85
2019-05-14T15:17:59.367Z,9.05
2019-05-14T15:20:30.172Z,9.50
2019-05-14T15:23:00.911Z,11.95
2019-05-14T15:25:32.365Z,9.15
2019-05-14T15:28:02.740Z,9.23
2019-05-14T15:30:33.373Z,10.53
2019-05-14T15:33:03.683Z,12.65
2019-05-14T15:35:33.898Z,11.65
2019-05-14T15:38:04.572Z,12.95
2019-05-14T15:40:35.254Z,14.43
2019-05-14T15:43:09.956Z,12.25
2019-05-14T15:45:39.132Z,14.68
2019-05-14T15:48:09.427Z,17.23
2019-05-14T15:50:40.021Z,18.07
2019-05-14T15:53:11.319Z,16.45
2019-05-14T15:55:42.621Z,14.98
2019-05-14T15:58:12.857Z,13.00
2019-05-14T16:00:43.496Z,13.90
2019-05-14T16:03:14.335Z,16.50
2019-05-14T16:05:45.007Z,16.73
2019-05-14T16:08:22.195Z,17.75
2019-05-14T16:10:49.873Z,14.90
2019-05-14T16:13:22.131Z,18.90
2019-05-14T16:15:52.437Z,16.42
2019-05-14T16:18:23.034Z,19.35
2019-05-14T16:20:53.349Z,19.40
2019-05-14T16:23:23.574Z,16.93
2019-05-14T16:25:56.021Z,16.52
2019-05-14T16:28:28.667Z,16.87
2019-05-14T16:30:59.657Z,20.32
2019-05-14T16:33:30.101Z,19.92
2019-05-14T16:36:00.736Z,18.87
2019-05-14T16:38:31.271Z,19.57
2019-05-14T16:41:01.876Z,18.73
2019-05-14T16:43:32.772Z,20.55
2019-05-14T16:46:03.045Z,21.17
2019-05-14T16:48:33.300Z,21.97
2019-05-14T16:51:03.643Z,23.10
2019-05-14T16:53:34.902Z,25.35
2019-05-14T16:56:05.140Z,24.82
2019-05-14T16:58:35.571Z,19.82
2019-05-14T17:01:05.830Z,25.10
2019-05-14T17:03:39.249Z,24.82
2019-05-14T17:06:09.502Z,24.80
2019-05-14T17:08:39.810Z,24.85
2019-05-14T17:11:10.385Z,28.20
2019-05-14T17:13:40.696Z,31.50
2019-05-14T17:16:11.036Z,26.70
2019-05-14T17:18:41.287Z,25.75
2019-05-14T17:21:11.537Z,32.90
2019-05-14T17:23:41.793Z,28.73
2019-05-14T17:26:12.016Z,28.83
2019-05-14T17:28:42.333Z,35.63
2019-05-14T17:31:12.601Z,24.77
2019-05-14T17:33:42.934Z,26.00
2019-05-14T17:36:13.175Z,25.52
2019-05-14T17:38:43.446Z,24.72
2019-05-14T17:41:13.678Z,29.45
2019-05-14T17:43:44.285Z,27.32
2019-05-14T17:46:14.935Z,31.35
2019-05-14T17:48:45.258Z,27.82
2019-05-14T17:51:17.920Z,29.98
2019-05-14T17:53:48.072Z,25.40
2019-05-14T17:56:22.722Z,29.02
2019-05-14T17:58:51.195Z,27.25
2019-05-14T18:01:21.449Z,28.40
2019-05-14T18:03:53.888Z,27.75
2019-05-14T18:06:24.578Z,27.02
2019-05-14T18:08:55.300Z,35.85
2019-05-14T18:11:28.197Z,30.90
2019-05-14T18:13:59.132Z,28.17
2019-05-14T18:16:29.599Z,26.37
2019-05-14T18:18:59.818Z,28.27
2019-05-14T18:21:30.140Z,29.63
2019-05-14T18:24:00.735Z,30.48
2019-05-14T18:26:31.526Z,31.40
2019-05-14T18:29:04.507Z,27.62
2019-05-14T18:31:34.363Z,28.73
2019-05-14T18:34:05.130Z,32.03
2019-05-14T18:36:35.430Z,26.60
2019-05-14T18:39:09.263Z,27.25
2019-05-14T18:41:39.369Z,29.42
2019-05-14T18:44:09.969Z,30.15
2019-05-14T18:46:40.228Z,27.98
2019-05-14T18:49:12.037Z,29.02
2019-05-14T18:51:42.916Z,32.40
2019-05-14T18:54:15.248Z,29.25
2019-05-14T18:56:46.087Z,27.05
2019-05-14T18:59:21.477Z,29.52
2019-05-14T19:01:53.698Z,27.98
2019-05-14T19:04:23.397Z,28.60
2019-05-14T19:06:53.631Z,32.23
2019-05-14T19:09:23.851Z,33.73
2019-05-14T19:11:54.109Z,28.02
2019-05-14T19:14:29.297Z,31.15
2019-05-14T19:17:00.323Z,28.30
2019-05-14T19:19:30.938Z,32.05
2019-05-14T19:22:01.385Z,34.15
2019-05-14T19:24:32.059Z,37.67
2019-05-14T19:27:02.551Z,34.80
2019-05-14T19:29:32.997Z,32.83
2019-05-14T19:32:04.647Z,38.88
2019-05-14T19:34:34.925Z,40.63
2019-05-14T19:37:05.161Z,33.75
2019-05-14T19:39:38.628Z,27.48
2019-05-14T19:42:10.818Z,35.75
2019-05-14T19:44:41.274Z,30.27
2019-05-14T19:47:11.451Z,31.48
2019-05-14T19:49:42.183Z,26.33
2019-05-14T19:52:12.833Z,34.18
2019-05-14T19:54:43.618Z,29.18
2019-05-14T19:57:14.354Z,28.77
2019-05-14T19:59:44.675Z,31.30
2019-05-14T20:02:15.206Z,28.00
2019-05-14T20:04:45.884Z,29.60
2019-05-14T20:07:18.103Z,29.10
2019-05-14T20:09:49.002Z,28.57
2019-05-14T20:12:20.011Z,27.70
2019-05-14T20:14:50.816Z,28.52
2019-05-14T20:17:21.638Z,39.20
2019-05-14T20:19:52.305Z,32.30
2019-05-14T20:22:22.773Z,33.60
2019-05-14T20:24:53.279Z,32.88
2019-05-14T20:27:23.502Z,28.07
2019-05-14T20:29:53.750Z,37.23
2019-05-14T20:32:24.555Z,23.85
2019-05-14T20:34:58.487Z,30.85
2019-05-14T20:37:29.208Z,29.50
2019-05-14T20:40:00.395Z,35.58
2019-05-14T20:42:31.637Z,33.78
2019-05-14T20:45:03.103Z,33.28
2019-05-14T20:47:34.087Z,36.85
2019-05-14T20:50:08.918Z,35.70
2019-05-14T20:52:41.144Z,37.55
2019-05-14T20:55:12.306Z,36.98
2019-05-14T20:57:42.711Z,40.20
2019-05-14T21:00:13.772Z,33.88
2019-05-14T21:02:44.773Z,37.85
2019-05-14T21:05:16.041Z,35.70
2019-05-14T21:07:49.143Z,37.80
2019-05-14T21:10:20.915Z,38.73
2019-05-14T21:12:51.213Z,34.83
2019-05-14T21:15:21.494Z,38.80
2019-05-14T21:17:51.679Z,39.80
2019-05-14T21:20:22.054Z,38.45
2019-05-14T21:22:52.579Z,38.00
2019-05-14T21:25:23.847Z,38.33
2019-05-14T21:27:54.628Z,40.90
2019-05-14T21:30:25.340Z,35.70
2019-05-14T21:32:55.716Z,35.58
2019-05-14T21:35:25.928Z,36.58
2019-05-14T21:37:56.138Z,36.55
2019-05-14T21:40:29.076Z,43.58
2019-05-14T21:42:58.775Z,39.80
2019-05-14T21:45:29.027Z,38.50
2019-05-14T21:47:59.588Z,40.60
2019-05-14T21:50:29.928Z,38.55
2019-05-14T21:53:00.827Z,40.28
2019-05-14T21:55:31.161Z,40.88
2019-05-14T21:58:01.737Z,36.98
2019-05-14T22:00:42.151Z,38.73
2019-05-14T22:03:11.978Z,36.98
2019-05-14T22:05:42.258Z,35.83
2019-05-14T22:08:12.497Z,38.08
2019-05-14T22:10:42.872Z,31.93
2019-05-14T22:13:13.096Z,35.95
2019-05-14T22:15:43.420Z,40.25
2019-05-14T22:18:17.928Z,41.53
2019-05-14T22:20:48.265Z,36.75
2019-05-14T22:23:21.292Z,45.65
2019-05-14T22:25:51.211Z,38.98
2019-05-14T22:28:21.933Z,40.73
2019-05-14T22:30:52.312Z,38.40
2019-05-14T22:33:22.540Z,37.38
2019-05-14T22:35:53.108Z,41.45
2019-05-14T22:38:24.191Z,41.02
2019-05-14T22:40:55.042Z,39.60
2019-05-14T22:43:25.679Z,45.83
2019-05-14T22:45:58.899Z,43.48
2019-05-14T22:48:28.395Z,37.10
2019-05-14T22:50:59.320Z,44.00
2019-05-14T22:53:30.551Z,41.18
2019-05-14T22:56:01.479Z,41.40
2019-05-14T22:58:31.856Z,41.92
2019-05-14T23:01:14.296Z,47.70
2019-05-14T23:03:34.401Z,44.10
2019-05-14T23:06:05.058Z,44.80
2019-05-14T23:08:35.335Z,48.40
2019-05-14T23:11:05.552Z,41.15
2019-05-14T23:13:36.350Z,47.17
2019-05-14T23:16:08.241Z,44.23
2019-05-14T23:18:39.755Z,43.48
2019-05-14T23:21:10.359Z,49.30
2019-05-14T23:23:41.895Z,47.73
2019-05-14T23:26:12.551Z,50.65
2019-05-14T23:28:45.962Z,45.60
2019-05-14T23:31:15.568Z,48.60
2019-05-14T23:33:45.956Z,50.65
2019-05-14T23:36:18.317Z,49.13
2019-05-14T23:38:49.423Z,48.20
2019-05-14T23:41:19.687Z,45.63
2019-05-14T23:43:50.043Z,46.15
2019-05-14T23:46:20.269Z,40.20
2019-05-14T23:48:50.508Z,48.50
2019-05-14T23:51:21.073Z,50.30
2019-05-14T23:53:51.739Z,45.00
2019-05-14T23:56:22.369Z,40.45
2019-05-14T23:58:58.355Z,45.08
